Time;durP1;ratioP1;P1;durP2;ratioP2;P2;SDS_P1;SDS_P2;PMS_P1;PMS_P2;Temp;Humidity;BMP_temperature;BMP_pressure;BME280_temperature;BME280_humidity;BME280_pressure;Samples;Min_cycle;Max_cycle;Signal;HPM_P1;HPM_P2
2023/08/28 00:01:41;;;;;;;2.35;1.60;;;;;;;;;;5066416;28;20036;-87
2023/08/28 00:04:11;;;;;;;2.08;1.75;;;;;;;;;;5049808;28;20041;-87
2023/08/28 00:06:42;;;;;;;2.45;1.42;;;;;;;;;;5037419;28;20016;-85
2023/08/28 00:09:12;;;;;;;2.90;1.67;;;;;;;;;;5049788;28;20017;-87
2023/08/28 00:11:39;;;;;;;13.10;1.80;;;;;;;;;;5046393;28;20013;-86
2023/08/28 00:14:04;;;;;;;2.95;1.88;;;;;;;;;;5059351;28;20051;-84
2023/08/28 00:16:30;;;;;;;2.65;1.80;;;;;;;;;;5050695;28;20017;-86
2023/08/28 00:18:57;;;;;;;5.22;1.92;;;;;;;;;;5040294;28;20112;-85
2023/08/28 00:21:22;;;;;;;3.70;1.90;;;;;;;;;;5058340;28;20031;-84
2023/08/28 00:23:54;;;;;;;3.70;1.70;;;;;;;;;;5036335;28;20112;-83
2023/08/28 00:26:19;;;;;;;2.75;1.77;;;;;;;;;;5045787;28;20093;-88
2023/08/28 00:28:45;;;;;;;6.53;1.75;;;;;;;;;;5033822;28;20057;-88
2023/08/28 00:31:10;;;;;;;2.08;1.60;;;;;;;;;;5040957;28;20021;-88
2023/08/28 00:33:36;;;;;;;2.35;1.77;;;;;;;;;;5055332;28;20104;-88
2023/08/28 00:36:01;;;;;;;3.00;1.60;;;;;;;;;;5041472;28;20027;-88
2023/08/28 00:38:27;;;;;;;2.20;1.45;;;;;;;;;;5045473;28;20032;-89
2023/08/28 00:40:55;;;;;;;2.47;1.48;;;;;;;;;;5034922;28;20025;-88
2023/08/28 00:43:20;;;;;;;3.10;1.92;;;;;;;;;;5046311;28;20021;-88
2023/08/28 00:45:50;;;;;;;6.50;1.80;;;;;;;;;;5034600;28;20017;-87
2023/08/28 00:48:19;;;;;;;2.08;1.45;;;;;;;;;;5040297;28;20012;-87
2023/08/28 00:50:44;;;;;;;2.70;1.70;;;;;;;;;;5049118;28;20016;-87
2023/08/28 00:53:11;;;;;;;3.42;1.90;;;;;;;;;;5068034;28;20024;-88
2023/08/28 00:55:37;;;;;;;4.32;1.65;;;;;;;;;;5034641;28;20425;-88
2023/08/28 00:58:02;;;;;;;6.22;1.80;;;;;;;;;;5050345;28;20027;-88
2023/08/28 01:00:30;;;;;;;2.90;1.70;;;;;;;;;;5049550;28;20020;-88
2023/08/28 01:02:56;;;;;;;4.00;1.98;;;;;;;;;;5047115;28;20349;-88
2023/08/28 01:05:25;;;;;;;4.53;1.80;;;;;;;;;;5050787;28;20044;-88
2023/08/28 01:08:20;;;;;;;6.80;1.60;;;;;;;;;;5051590;28;20032;-88
2023/08/28 01:10:49;;;;;;;3.40;1.90;;;;;;;;;;4983877;28;20737;-88
2023/08/28 01:13:36;;;;;;;2.10;1.50;;;;;;;;;;5059405;28;20024;-88
2023/08/28 01:16:02;;;;;;;7.25;1.90;;;;;;;;;;5052091;28;20421;-86
2023/08/28 01:18:31;;;;;;;2.38;1.65;;;;;;;;;;5041185;28;20036;-86
2023/08/28 01:20:57;;;;;;;4.95;1.52;;;;;;;;;;5048203;28;20367;-86
2023/08/28 01:23:37;;;;;;;4.57;1.83;;;;;;;;;;5049435;28;20048;-84
2023/08/28 01:26:03;;;;;;;2.72;1.52;;;;;;;;;;5052406;28;20032;-84
2023/08/28 01:28:28;;;;;;;4.13;1.50;;;;;;;;;;5081257;28;20016;-83
2023/08/28 01:30:53;;;;;;;3.30;2.25;;;;;;;;;;5064350;28;20017;-88
2023/08/28 01:33:19;;;;;;;1.85;1.40;;;;;;;;;;5056015;28;20021;-86
2023/08/28 01:35:57;;;;;;;3.42;1.90;;;;;;;;;;5049769;28;20025;-88
2023/08/28 01:38:34;;;;;;;4.03;1.90;;;;;;;;;;5047623;28;20021;-88
2023/08/28 01:41:00;;;;;;;3.70;1.45;;;;;;;;;;5050455;28;20480;-84
2023/08/28 01:43:28;;;;;;;2.85;1.58;;;;;;;;;;5050096;28;20095;-84
2023/08/28 01:45:54;;;;;;;2.38;1.65;;;;;;;;;;5037106;28;20029;-85
2023/08/28 01:48:19;;;;;;;3.33;1.95;;;;;;;;;;5062322;28;20449;-84
2023/08/28 01:50:44;;;;;;;6.78;2.00;;;;;;;;;;5045372;28;20108;-83
2023/08/28 01:53:10;;;;;;;2.85;1.63;;;;;;;;;;5037607;28;20013;-84
2023/08/28 01:55:48;;;;;;;2.72;1.80;;;;;;;;;;5035081;28;20468;-84
2023/08/28 01:58:14;;;;;;;2.65;1.77;;;;;;;;;;5037819;28;20111;-84
2023/08/28 02:00:39;;;;;;;3.72;1.80;;;;;;;;;;5048261;28;20048;-84
2023/08/28 02:03:05;;;;;;;2.10;1.42;;;;;;;;;;5059393;28;20029;-84
2023/08/28 02:05:30;;;;;;;6.65;1.75;;;;;;;;;;5055380;28;20067;-84
2023/08/28 02:07:56;;;;;;;1.95;1.55;;;;;;;;;;5038207;28;20100;-84
2023/08/28 02:10:21;;;;;;;4.60;1.92;;;;;;;;;;5037607;28;20104;-84
2023/08/28 02:12:56;;;;;;;3.22;1.80;;;;;;;;;;5036781;28;20033;-84
2023/08/28 02:15:21;;;;;;;2.83;1.90;;;;;;;;;;5036237;28;20028;-84
2023/08/28 02:17:47;;;;;;;5.30;1.80;;;;;;;;;;5036893;28;20108;-84
2023/08/28 02:20:12;;;;;;;3.35;1.67;;;;;;;;;;5039828;28;20020;-84
2023/08/28 02:22:38;;;;;;;3.70;1.70;;;;;;;;;;5048242;28;20013;-84
2023/08/28 02:25:05;;;;;;;3.38;1.58;;;;;;;;;;5040031;28;20029;-84
2023/08/28 02:27:31;;;;;;;4.57;1.67;;;;;;;;;;5039997;28;20302;-84
2023/08/28 02:29:59;;;;;;;3.88;1.42;;;;;;;;;;5047353;28;20150;-84
2023/08/28 02:32:28;;;;;;;1.80;1.33;;;;;;;;;;5036554;28;20036;-83
2023/08/28 02:34:58;;;;;;;5.75;1.85;;;;;;;;;;5046912;28;20082;-86
2023/08/28 02:37:24;;;;;;;1.75;1.60;;;;;;;;;;5036816;28;20028;-86
2023/08/28 02:39:49;;;;;;;1.98;1.27;;;;;;;;;;5036952;28;20055;-85
2023/08/28 02:42:17;;;;;;;1.77;1.50;;;;;;;;;;5057315;28;20021;-85
2023/08/28 02:44:42;;;;;;;3.97;1.50;;;;;;;;;;5046426;28;20021;-84
2023/08/28 02:47:07;;;;;;;1.83;1.30;;;;;;;;;;5037338;28;20032;-84
2023/08/28 02:49:32;;;;;;;4.43;1.35;;;;;;;;;;5050774;28;20028;-84
2023/08/28 02:51:58;;;;;;;5.03;2.78;;;;;;;;;;5036408;28;20073;-83
2023/08/28 02:54:29;;;;;;;6.82;1.30;;;;;;;;;;5038376;28;20118;-84
2023/08/28 02:56:54;;;;;;;3.30;1.40;;;;;;;;;;5050861;28;20368;-84
2023/08/28 02:59:20;;;;;;;2.10;1.33;;;;;;;;;;5076236;28;20028;-84
2023/08/28 03:01:46;;;;;;;3.40;1.58;;;;;;;;;;5038746;28;20053;-83
2023/08/28 03:04:11;;;;;;;2.92;1.60;;;;;;;;;;5037043;28;20032;-84
2023/08/28 03:06:37;;;;;;;2.63;1.77;;;;;;;;;;5042999;28;20091;-83
2023/08/28 03:09:07;;;;;;;3.65;1.27;;;;;;;;;;5050069;28;20021;-83
2023/08/28 03:11:33;;;;;;;2.65;1.33;;;;;;;;;;5036586;28;20087;-83
2023/08/28 03:13:59;;;;;;;2.95;1.60;;;;;;;;;;5050396;28;20033;-84
2023/08/28 03:16:24;;;;;;;2.10;1.38;;;;;;;;;;5036511;28;20021;-84
2023/08/28 03:18:49;;;;;;;3.72;1.23;;;;;;;;;;5033627;28;20059;-84
2023/08/28 03:21:17;;;;;;;1.25;1.15;;;;;;;;;;5035148;28;20029;-84
2023/08/28 03:23:43;;;;;;;2.13;1.58;;;;;;;;;;5035114;28;20404;-83
2023/08/28 03:26:08;;;;;;;5.45;1.65;;;;;;;;;;5041238;28;20025;-83
2023/08/28 03:28:33;;;;;;;2.20;1.60;;;;;;;;;;5036299;28;20036;-83
2023/08/28 03:30:59;;;;;;;7.63;2.03;;;;;;;;;;5035726;28;20490;-84
2023/08/28 03:33:25;;;;;;;2.88;1.58;;;;;;;;;;5034667;28;20021;-84
2023/08/28 03:35:50;;;;;;;2.25;1.40;;;;;;;;;;5034915;28;20025;-83
2023/08/28 03:38:16;;;;;;;2.42;1.40;;;;;;;;;;5035159;28;20025;-83
2023/08/28 03:40:41;;;;;;;2.38;1.65;;;;;;;;;;5069474;28;20029;-84
2023/08/28 03:43:06;;;;;;;2.33;1.38;;;;;;;;;;5039696;28;20051;-84
2023/08/28 03:45:32;;;;;;;2.28;1.75;;;;;;;;;;5025759;28;20534;-84
2023/08/28 03:48:14;;;;;;;6.15;1.20;;;;;;;;;;5047495;28;20078;-83
2023/08/28 03:50:42;;;;;;;3.40;1.75;;;;;;;;;;5029183;28;20506;-84
2023/08/28 03:53:07;;;;;;;2.00;1.52;;;;;;;;;;5053284;28;20116;-84
2023/08/28 03:55:33;;;;;;;4.88;1.55;;;;;;;;;;5035403;28;20080;-84
2023/08/28 03:57:59;;;;;;;4.70;1.58;;;;;;;;;;5035567;28;20071;-84
2023/08/28 04:00:25;;;;;;;2.85;1.52;;;;;;;;;;5068205;28;20395;-84
2023/08/28 04:02:52;;;;;;;5.25;1.70;;;;;;;;;;5050049;28;20771;-85
2023/08/28 04:05:23;;;;;;;2.40;1.58;;;;;;;;;;5038172;28;20033;-88
2023/08/28 04:07:53;;;;;;;3.83;1.80;;;;;;;;;;5053534;28;20028;-85
2023/08/28 04:10:21;;;;;;;2.33;1.63;;;;;;;;;;5050215;28;20004;-82
2023/08/28 04:12:46;;;;;;;7.85;1.63;;;;;;;;;;5060284;28;20025;-85
2023/08/28 04:15:14;;;;;;;3.70;1.70;;;;;;;;;;5037053;28;20395;-84
2023/08/28 04:17:40;;;;;;;2.63;1.60;;;;;;;;;;5055985;28;20015;-84
2023/08/28 04:20:24;;;;;;;3.00;1.48;;;;;;;;;;5037535;28;20480;-86
2023/08/28 04:22:50;;;;;;;5.72;1.70;;;;;;;;;;5044293;28;20115;-86
2023/08/28 04:25:17;;;;;;;5.05;1.65;;;;;;;;;;5043620;28;20021;-86
2023/08/28 04:30:33;;;;;;;2.95;1.67;;;;;;;;;;5058282;28;20360;-82
2023/08/28 04:33:01;;;;;;;4.63;1.80;;;;;;;;;;5034251;28;20322;-83
2023/08/28 04:35:32;;;;;;;3.90;1.75;;;;;;;;;;5053481;28;20104;-82
2023/08/28 04:37:58;;;;;;;3.35;1.80;;;;;;;;;;5049527;28;20103;-83
2023/08/28 04:40:23;;;;;;;3.90;1.90;;;;;;;;;;5037449;28;20026;-83
2023/08/28 04:42:48;;;;;;;2.40;1.70;;;;;;;;;;5054905;28;20021;-83
2023/08/28 04:45:14;;;;;;;3.95;1.92;;;;;;;;;;5059463;28;20066;-83
2023/08/28 04:47:39;;;;;;;4.15;2.22;;;;;;;;;;5041109;28;20017;-83
2023/08/28 04:50:04;;;;;;;5.93;2.15;;;;;;;;;;5040894;28;20546;-83
2023/08/28 04:52:30;;;;;;;5.28;2.13;;;;;;;;;;5040590;28;20021;-82
2023/08/28 04:54:55;;;;;;;5.70;2.17;;;;;;;;;;5058572;28;20365;-83
2023/08/28 04:57:21;;;;;;;6.10;2.17;;;;;;;;;;5040610;28;20019;-83
2023/08/28 04:59:48;;;;;;;5.90;2.10;;;;;;;;;;5054424;28;20047;-83
2023/08/28 05:02:14;;;;;;;3.67;2.35;;;;;;;;;;5045704;28;20063;-84
2023/08/28 05:04:40;;;;;;;4.03;2.10;;;;;;;;;;5050982;28;20516;-83
2023/08/28 05:07:07;;;;;;;7.00;2.50;;;;;;;;;;5037042;28;20045;-83
2023/08/28 05:09:32;;;;;;;6.72;2.35;;;;;;;;;;5040689;28;20379;-83
2023/08/28 05:11:58;;;;;;;8.15;2.17;;;;;;;;;;5039679;28;20017;-83
2023/08/28 05:14:27;;;;;;;5.25;2.50;;;;;;;;;;5051208;28;20111;-83
2023/08/28 05:16:53;;;;;;;3.25;2.38;;;;;;;;;;5056187;28;20328;-86
2023/08/28 05:19:18;;;;;;;4.00;2.33;;;;;;;;;;5040726;28;20024;-85
2023/08/28 05:21:53;;;;;;;4.78;2.35;;;;;;;;;;5058883;28;20413;-85
2023/08/28 05:24:20;;;;;;;2.83;2.00;;;;;;;;;;5042290;28;20076;-86
2023/08/28 05:26:49;;;;;;;4.57;3.00;;;;;;;;;;5062810;28;20021;-83
2023/08/28 05:29:21;;;;;;;6.22;2.22;;;;;;;;;;5060214;28;20025;-89
2023/08/28 05:31:47;;;;;;;3.70;2.20;;;;;;;;;;5076057;28;20020;-83
2023/08/28 05:34:20;;;;;;;6.45;2.03;;;;;;;;;;5057059;28;20028;-89
2023/08/28 05:36:47;;;;;;;6.85;2.72;;;;;;;;;;5031710;28;20459;-82
2023/08/28 05:39:14;;;;;;;5.20;2.60;;;;;;;;;;5084167;28;20025;-88
2023/08/28 05:41:39;;;;;;;3.33;2.20;;;;;;;;;;5052948;28;20021;-83
2023/08/28 05:44:05;;;;;;;3.45;2.17;;;;;;;;;;5039649;28;20028;-84
2023/08/28 05:46:30;;;;;;;4.38;2.42;;;;;;;;;;5051186;28;20020;-82
2023/08/28 05:48:56;;;;;;;4.95;2.45;;;;;;;;;;5048283;28;20025;-84
2023/08/28 05:51:21;;;;;;;6.72;3.40;;;;;;;;;;5032261;28;20024;-84
2023/08/28 05:53:46;;;;;;;4.25;2.58;;;;;;;;;;5043228;28;20017;-83
2023/08/28 05:56:11;;;;;;;3.75;2.60;;;;;;;;;;5035159;28;20032;-83
2023/08/28 05:58:37;;;;;;;7.63;3.35;;;;;;;;;;5031047;28;20473;-84
2023/08/28 06:01:03;;;;;;;4.30;2.60;;;;;;;;;;5032253;28;20025;-84
2023/08/28 06:03:28;;;;;;;10.85;2.97;;;;;;;;;;5034923;28;20021;-84
2023/08/28 06:05:54;;;;;;;3.22;2.22;;;;;;;;;;5035027;28;20100;-84
2023/08/28 06:08:20;;;;;;;4.18;2.50;;;;;;;;;;5036830;28;20029;-84
2023/08/28 06:10:45;;;;;;;9.80;2.78;;;;;;;;;;5037083;28;20547;-84
2023/08/28 06:13:11;;;;;;;4.75;2.67;;;;;;;;;;5035711;28;20507;-84
2023/08/28 06:15:37;;;;;;;4.78;2.60;;;;;;;;;;5036655;28;20024;-84
2023/08/28 06:18:04;;;;;;;14.82;2.95;;;;;;;;;;5036313;28;20212;-84
2023/08/28 06:20:30;;;;;;;6.28;2.70;;;;;;;;;;5036539;28;20036;-84
2023/08/28 06:22:55;;;;;;;4.57;2.90;;;;;;;;;;5048975;28;20425;-84
2023/08/28 06:25:21;;;;;;;6.35;3.00;;;;;;;;;;5029805;28;20021;-85
2023/08/28 06:27:49;;;;;;;5.70;3.05;;;;;;;;;;5033622;28;20481;-84
2023/08/28 06:30:15;;;;;;;8.25;4.05;;;;;;;;;;5034569;28;20031;-83
2023/08/28 06:32:42;;;;;;;5.03;2.90;;;;;;;;;;5037651;28;20033;-85
2023/08/28 06:35:08;;;;;;;4.80;2.95;;;;;;;;;;5039075;28;20017;-85
2023/08/28 06:37:33;;;;;;;6.88;3.25;;;;;;;;;;5045806;28;20024;-85
2023/08/28 06:39:59;;;;;;;6.65;3.40;;;;;;;;;;5032641;28;20025;-85
2023/08/28 06:42:25;;;;;;;7.47;3.08;;;;;;;;;;5057380;28;20164;-83
2023/08/28 06:44:51;;;;;;;10.43;3.50;;;;;;;;;;5049663;28;20036;-85
2023/08/28 06:47:18;;;;;;;7.53;3.30;;;;;;;;;;5051292;28;20049;-89
2023/08/28 06:49:43;;;;;;;5.15;3.38;;;;;;;;;;5042284;28;20021;-84
2023/08/28 06:52:12;;;;;;;5.72;3.83;;;;;;;;;;5042767;28;20383;-90
2023/08/28 06:55:02;;;;;;;8.20;4.03;;;;;;;;;;5039835;28;20016;-89
2023/08/28 06:57:28;;;;;;;8.73;3.63;;;;;;;;;;5036578;28;20031;-90
2023/08/28 06:59:53;;;;;;;6.10;3.47;;;;;;;;;;5054623;28;20025;-90
2023/08/28 07:02:19;;;;;;;6.93;3.70;;;;;;;;;;5033743;28;20059;-90
2023/08/28 07:04:44;;;;;;;8.35;3.67;;;;;;;;;;5033065;28;20075;-90
2023/08/28 07:07:10;;;;;;;7.22;3.80;;;;;;;;;;5036061;28;20036;-89
2023/08/28 07:09:38;;;;;;;9.32;3.70;;;;;;;;;;5037026;28;20025;-90
2023/08/28 07:12:05;;;;;;;9.85;4.03;;;;;;;;;;5033322;28;20339;-90
2023/08/28 07:14:30;;;;;;;9.73;3.92;;;;;;;;;;5043601;28;20103;-90
2023/08/28 07:16:55;;;;;;;5.90;3.80;;;;;;;;;;5036519;28;20060;-90
2023/08/28 07:19:21;;;;;;;5.82;3.75;;;;;;;;;;5036033;28;20036;-89
2023/08/28 07:21:46;;;;;;;9.93;4.72;;;;;;;;;;5052754;28;20476;-89
2023/08/28 07:24:12;;;;;;;8.98;4.13;;;;;;;;;;5035422;28;20104;-90
2023/08/28 07:26:37;;;;;;;7.57;4.13;;;;;;;;;;5035849;28;20095;-88
2023/08/28 07:29:02;;;;;;;14.10;4.00;;;;;;;;;;5036670;28;20071;-90
2023/08/28 07:31:28;;;;;;;6.68;4.00;;;;;;;;;;5032801;28;20101;-90
2023/08/28 07:33:55;;;;;;;9.35;4.15;;;;;;;;;;5034809;28;20032;-90
2023/08/28 07:36:23;;;;;;;10.02;4.45;;;;;;;;;;5035374;28;20027;-90
2023/08/28 07:38:49;;;;;;;9.50;4.53;;;;;;;;;;5035389;28;20056;-89
2023/08/28 07:41:16;;;;;;;9.57;3.88;;;;;;;;;;5034773;28;20033;-90
2023/08/28 07:43:42;;;;;;;17.70;4.40;;;;;;;;;;5051565;28;20124;-90
2023/08/28 07:46:08;;;;;;;5.50;3.67;;;;;;;;;;5034356;28;20044;-90
2023/08/28 07:48:33;;;;;;;8.52;3.63;;;;;;;;;;5035071;28;20396;-90
2023/08/28 07:51:02;;;;;;;8.32;4.40;;;;;;;;;;5035196;28;20028;-90
2023/08/28 07:53:28;;;;;;;16.48;3.90;;;;;;;;;;5043745;28;20067;-89
2023/08/28 07:55:56;;;;;;;6.75;4.00;;;;;;;;;;5040927;28;20483;-90
2023/08/28 07:58:23;;;;;;;10.98;4.18;;;;;;;;;;5054466;28;20486;-90
2023/08/28 08:00:51;;;;;;;9.77;4.07;;;;;;;;;;5054522;28;20061;-85
2023/08/28 08:03:19;;;;;;;6.97;3.97;;;;;;;;;;5049799;28;20035;-85
2023/08/28 08:05:46;;;;;;;7.15;4.25;;;;;;;;;;5065931;28;20028;-87
2023/08/28 08:08:13;;;;;;;10.07;4.68;;;;;;;;;;5070510;28;20056;-86
2023/08/28 08:10:41;;;;;;;8.70;4.18;;;;;;;;;;5047267;28;20032;-85
2023/08/28 08:13:08;;;;;;;8.63;4.30;;;;;;;;;;5049103;28;20061;-86
2023/08/28 08:15:39;;;;;;;5.60;3.70;;;;;;;;;;5063476;28;20017;-84
2023/08/28 08:18:05;;;;;;;9.75;4.13;;;;;;;;;;5053586;28;20032;-85
2023/08/28 08:20:31;;;;;;;7.35;3.47;;;;;;;;;;5047735;28;20098;-82
2023/08/28 08:22:57;;;;;;;7.68;3.55;;;;;;;;;;5036271;28;20025;-85
2023/08/28 08:25:22;;;;;;;7.22;3.65;;;;;;;;;;5056230;28;20013;-82
2023/08/28 08:27:48;;;;;;;6.20;3.85;;;;;;;;;;5033611;28;20034;-84
2023/08/28 08:30:13;;;;;;;10.85;4.20;;;;;;;;;;5031084;28;20461;-84
2023/08/28 08:32:39;;;;;;;9.40;4.85;;;;;;;;;;5033807;28;20436;-85
2023/08/28 08:35:05;;;;;;;11.30;4.07;;;;;;;;;;5042021;28;20056;-84
2023/08/28 08:37:31;;;;;;;7.10;4.25;;;;;;;;;;5048564;28;20337;-85
2023/08/28 08:39:56;;;;;;;6.05;4.00;;;;;;;;;;5048270;28;20024;-85
2023/08/28 08:42:21;;;;;;;7.88;4.60;;;;;;;;;;5035441;28;20024;-84
2023/08/28 08:44:50;;;;;;;9.52;4.28;;;;;;;;;;5035028;28;20021;-85
2023/08/28 08:47:16;;;;;;;9.32;4.20;;;;;;;;;;5036558;28;20032;-84
2023/08/28 08:49:44;;;;;;;6.15;3.97;;;;;;;;;;5035192;28;20033;-82
2023/08/28 08:52:12;;;;;;;7.75;3.70;;;;;;;;;;5042681;28;20021;-84
2023/08/28 09:00:26;;;;;;;;;;;;;;;;;;5039541;28;20094;-84
2023/08/28 09:02:52;;;;;;;8.20;4.68;;;;;;;;;;5040227;28;19932;-85
2023/08/28 09:05:18;;;;;;;9.95;4.90;;;;;;;;;;5044849;28;20478;-84
2023/08/28 09:07:48;;;;;;;11.80;4.78;;;;;;;;;;5034528;28;20488;-84
2023/08/28 09:10:14;;;;;;;9.52;4.60;;;;;;;;;;5028108;28;20029;-85
2023/08/28 09:12:51;;;;;;;6.75;4.30;;;;;;;;;;5024328;28;20425;-84
2023/08/28 09:15:17;;;;;;;7.80;4.40;;;;;;;;;;5035166;28;20001;-90
2023/08/28 09:17:44;;;;;;;7.78;4.30;;;;;;;;;;5037923;28;21512;-90
2023/08/28 09:20:23;;;;;;;8.43;4.25;;;;;;;;;;5013003;28;20590;-90
2023/08/28 09:22:49;;;;;;;7.93;4.30;;;;;;;;;;5028165;28;20025;-87
2023/08/28 09:25:21;;;;;;;10.32;4.20;;;;;;;;;;5052103;28;20033;-90
2023/08/28 09:27:49;;;;;;;7.32;3.42;;;;;;;;;;5047709;28;20025;-89
2023/08/28 09:30:27;;;;;;;12.52;4.95;;;;;;;;;;5051306;28;20044;-87
2023/08/28 09:32:53;;;;;;;4.82;3.22;;;;;;;;;;5055204;28;20021;-84
2023/08/28 09:35:23;;;;;;;7.78;4.38;;;;;;;;;;5050231;28;20009;-84
2023/08/28 09:37:57;;;;;;;6.93;4.32;;;;;;;;;;5062273;28;20021;-83
2023/08/28 09:40:33;;;;;;;5.78;4.20;;;;;;;;;;5052889;28;20037;-85
2023/08/28 09:42:59;;;;;;;8.68;4.53;;;;;;;;;;5043568;28;20041;-85
2023/08/28 09:45:33;;;;;;;8.07;2.97;;;;;;;;;;5038789;28;20031;-85
2023/08/28 09:48:06;;;;;;;6.65;4.20;;;;;;;;;;5061479;28;20369;-85
2023/08/28 09:50:31;;;;;;;;;;;;;;;;;;5056437;28;20072;-87
2023/08/28 09:53:17;;;;;;;8.77;4.65;;;;;;;;;;5052966;28;19905;-86
2023/08/28 09:55:48;;;;;;;10.00;5.05;;;;;;;;;;5037700;28;20025;-87
2023/08/28 09:58:14;;;;;;;10.88;4.70;;;;;;;;;;5035626;28;20059;-87
2023/08/28 10:00:40;;;;;;;9.13;4.10;;;;;;;;;;5038282;28;20033;-86
2023/08/28 10:03:11;;;;;;;7.57;3.88;;;;;;;;;;5027991;28;20024;-85
2023/08/28 10:05:37;;;;;;;5.50;4.03;;;;;;;;;;5056256;28;20439;-84
2023/08/28 10:08:10;;;;;;;7.15;3.63;;;;;;;;;;5041175;28;20029;-85
2023/08/28 10:10:36;;;;;;;8.88;4.28;;;;;;;;;;5034608;28;20044;-85
2023/08/28 10:13:05;;;;;;;9.75;3.75;;;;;;;;;;5034461;28;20029;-85
2023/08/28 10:15:38;;;;;;;16.75;4.60;;;;;;;;;;5054886;28;20020;-85
2023/08/28 10:18:06;;;;;;;11.35;4.90;;;;;;;;;;5034836;28;20132;-86
2023/08/28 10:20:40;;;;;;;7.80;4.35;;;;;;;;;;5048523;28;20028;-85
2023/08/28 10:23:07;;;;;;;7.97;4.45;;;;;;;;;;5046926;28;20025;-85
2023/08/28 10:25:33;;;;;;;4.97;3.38;;;;;;;;;;5052990;28;20415;-84
2023/08/28 10:28:08;;;;;;;7.53;4.90;;;;;;;;;;5035722;28;20071;-85
2023/08/28 10:30:34;;;;;;;5.57;4.00;;;;;;;;;;5041884;28;20424;-85
2023/08/28 10:33:01;;;;;;;7.22;3.70;;;;;;;;;;5043918;28;20096;-85
2023/08/28 10:35:28;;;;;;;7.28;3.38;;;;;;;;;;5055403;28;20023;-84
2023/08/28 10:38:20;;;;;;;5.97;3.28;;;;;;;;;;5043988;28;20029;-88
2023/08/28 10:40:51;;;;;;;8.50;4.38;;;;;;;;;;5020807;28;20033;-88
2023/08/28 10:43:19;;;;;;;4.22;3.25;;;;;;;;;;5043240;28;20025;-85
2023/08/28 10:45:47;;;;;;;7.70;3.47;;;;;;;;;;5049624;28;20057;-82
2023/08/28 10:48:17;;;;;;;11.20;3.35;;;;;;;;;;5032431;28;20025;-87
2023/08/28 10:50:45;;;;;;;7.15;2.92;;;;;;;;;;5043333;28;20005;-84
2023/08/28 10:53:16;;;;;;;7.90;3.60;;;;;;;;;;5040831;28;20017;-84
2023/08/28 10:55:55;;;;;;;7.25;2.75;;;;;;;;;;5051653;28;20460;-83
2023/08/28 10:58:24;;;;;;;8.55;2.38;;;;;;;;;;5054226;28;20044;-83
2023/08/28 11:01:09;;;;;;;6.32;2.40;;;;;;;;;;5048809;28;20074;-83
2023/08/28 11:03:56;;;;;;;4.82;2.22;;;;;;;;;;5056158;28;20037;-83
2023/08/28 11:06:45;;;;;;;4.40;1.70;;;;;;;;;;5034049;28;20083;-84
2023/08/28 11:09:28;;;;;;;7.43;2.72;;;;;;;;;;5039037;28;20489;-83
2023/08/28 11:11:59;;;;;;;2.80;2.03;;;;;;;;;;5027625;28;20025;-83
2023/08/28 11:14:25;;;;;;;5.95;1.75;;;;;;;;;;5034405;28;20064;-83
2023/08/28 11:17:11;;;;;;;4.13;2.05;;;;;;;;;;5049548;28;20075;-83
2023/08/28 11:19:57;;;;;;;2.25;1.65;;;;;;;;;;5041832;28;20111;-82
2023/08/28 11:22:31;;;;;;;7.38;1.88;;;;;;;;;;5025967;28;20036;-82
2023/08/28 11:24:57;;;;;;;2.40;1.50;;;;;;;;;;5020336;28;20029;-85
2023/08/28 11:27:35;;;;;;;1.60;1.20;;;;;;;;;;5042937;28;20114;-84
2023/08/28 11:30:09;;;;;;;4.85;1.52;;;;;;;;;;5054808;28;20068;-83
2023/08/28 11:32:35;;;;;;;2.33;1.25;;;;;;;;;;5053496;28;20352;-83
2023/08/28 11:35:09;;;;;;;1.80;1.38;;;;;;;;;;5053002;28;20029;-83
2023/08/28 11:37:39;;;;;;;4.45;1.60;;;;;;;;;;5042594;28;20039;-84
2023/08/28 11:40:06;;;;;;;5.40;2.47;;;;;;;;;;5054860;28;20024;-83
2023/08/28 11:42:32;;;;;;;4.53;1.77;;;;;;;;;;5044481;28;20024;-84
2023/08/28 11:44:57;;;;;;;7.60;2.47;;;;;;;;;;5053058;28;20017;-83
2023/08/28 11:47:23;;;;;;;5.20;1.80;;;;;;;;;;5034846;28;20074;-82
2023/08/28 11:49:49;;;;;;;4.03;1.77;;;;;;;;;;5048084;28;20025;-84
2023/08/28 11:52:15;;;;;;;3.92;2.28;;;;;;;;;;5018235;28;20018;-83
2023/08/28 11:54:40;;;;;;;2.45;1.92;;;;;;;;;;5033914;28;20024;-83
2023/08/28 11:57:06;;;;;;;5.07;2.05;;;;;;;;;;5047742;28;20373;-83
2023/08/28 11:59:31;;;;;;;4.00;2.20;;;;;;;;;;5060007;28;20104;-83
2023/08/28 12:02:02;;;;;;;3.67;2.30;;;;;;;;;;5046780;28;20021;-84
2023/08/28 12:04:27;;;;;;;4.70;2.75;;;;;;;;;;5033825;28;20021;-83
2023/08/28 12:06:53;;;;;;;3.47;2.00;;;;;;;;;;5048216;28;20023;-84
2023/08/28 12:09:19;;;;;;;4.30;2.10;;;;;;;;;;5061533;28;20094;-82
2023/08/28 12:11:45;;;;;;;5.70;2.00;;;;;;;;;;5048816;28;20020;-83
2023/08/28 12:14:18;;;;;;;5.35;2.13;;;;;;;;;;5053198;28;20032;-81
2023/08/28 12:16:44;;;;;;;2.22;1.65;;;;;;;;;;5025922;28;20028;-85
2023/08/28 12:19:09;;;;;;;3.33;1.83;;;;;;;;;;5036187;28;20012;-86
2023/08/28 12:21:38;;;;;;;4.38;2.05;;;;;;;;;;5031796;28;20074;-85
2023/08/28 12:24:06;;;;;;;3.97;1.65;;;;;;;;;;5050000;28;20450;-85
2023/08/28 12:26:33;;;;;;;2.63;1.95;;;;;;;;;;5065565;28;20033;-85
2023/08/28 12:28:59;;;;;;;3.25;1.52;;;;;;;;;;5030762;28;20104;-85
2023/08/28 12:31:31;;;;;;;4.70;1.85;;;;;;;;;;5035911;28;20059;-85
2023/08/28 12:33:57;;;;;;;7.97;1.95;;;;;;;;;;5047292;28;20021;-84
2023/08/28 12:36:48;;;;;;;2.63;1.40;;;;;;;;;;5034885;28;20036;-84
2023/08/28 12:39:21;;;;;;;6.55;1.50;;;;;;;;;;5029955;28;20393;-85
2023/08/28 12:42:14;;;;;;;7.05;1.70;;;;;;;;;;5049056;28;20371;-85
2023/08/28 12:44:43;;;;;;;2.63;1.48;;;;;;;;;;5026487;28;20025;-85
2023/08/28 12:47:12;;;;;;;3.60;1.80;;;;;;;;;;5041656;28;20572;-85
2023/08/28 12:49:41;;;;;;;5.57;1.50;;;;;;;;;;5048210;28;20405;-82
2023/08/28 12:52:07;;;;;;;1.73;1.30;;;;;;;;;;5034234;28;20025;-84
2023/08/28 12:54:33;;;;;;;3.15;1.65;;;;;;;;;;5037487;28;20043;-84
2023/08/28 12:56:58;;;;;;;1.77;1.50;;;;;;;;;;5045038;28;20033;-85
2023/08/28 12:59:23;;;;;;;2.08;1.50;;;;;;;;;;5048435;28;20111;-85
2023/08/28 13:01:51;;;;;;;2.97;1.70;;;;;;;;;;5038333;28;20021;-85
2023/08/28 13:04:17;;;;;;;2.13;1.58;;;;;;;;;;5052561;28;20027;-85
2023/08/28 13:06:42;;;;;;;3.47;1.60;;;;;;;;;;5049087;28;20023;-85
2023/08/28 13:09:08;;;;;;;5.38;1.80;;;;;;;;;;5041957;28;20024;-85
2023/08/28 13:11:33;;;;;;;5.00;2.15;;;;;;;;;;5047343;28;20031;-85
2023/08/28 13:14:00;;;;;;;2.90;1.65;;;;;;;;;;5043447;28;20132;-84
2023/08/28 13:16:26;;;;;;;5.25;1.63;;;;;;;;;;5037993;28;20464;-84
2023/08/28 13:18:54;;;;;;;3.58;1.98;;;;;;;;;;5038018;28;20033;-85
2023/08/28 13:21:20;;;;;;;3.72;2.20;;;;;;;;;;5056689;28;20052;-84
2023/08/28 13:23:46;;;;;;;6.78;1.63;;;;;;;;;;5048320;28;20031;-83
2023/08/28 13:26:11;;;;;;;3.10;1.83;;;;;;;;;;5048374;28;20116;-84
2023/08/28 13:28:37;;;;;;;4.28;1.80;;;;;;;;;;5038778;28;20151;-84
2023/08/28 13:31:03;;;;;;;3.63;2.17;;;;;;;;;;5052645;28;20029;-84
2023/08/28 13:33:29;;;;;;;2.85;2.08;;;;;;;;;;5034838;28;20029;-83
2023/08/28 13:35:54;;;;;;;4.95;2.45;;;;;;;;;;5038063;28;20025;-84
2023/08/28 13:38:20;;;;;;;4.05;2.20;;;;;;;;;;5070595;28;20027;-84
2023/08/28 13:40:45;;;;;;;3.30;1.65;;;;;;;;;;5045860;28;20040;-84
2023/08/28 13:43:10;;;;;;;5.82;1.73;;;;;;;;;;5045103;28;20033;-84
2023/08/28 13:45:39;;;;;;;5.57;2.63;;;;;;;;;;5054435;28;20021;-84
2023/08/28 13:48:04;;;;;;;3.13;1.83;;;;;;;;;;5023366;28;20497;-84
2023/08/28 13:50:33;;;;;;;3.83;2.00;;;;;;;;;;5054899;28;20028;-83
2023/08/28 13:52:58;;;;;;;3.90;2.67;;;;;;;;;;5050423;28;20017;-83
2023/08/28 13:55:24;;;;;;;2.60;1.90;;;;;;;;;;5046401;28;20041;-83
2023/08/28 13:57:49;;;;;;;6.38;2.28;;;;;;;;;;5054787;28;20017;-85
2023/08/28 14:00:16;;;;;;;7.22;2.38;;;;;;;;;;5030888;28;20039;-84
2023/08/28 14:02:42;;;;;;;9.85;2.80;;;;;;;;;;5029529;28;20033;-85
2023/08/28 14:05:12;;;;;;;3.35;2.30;;;;;;;;;;5038685;28;20025;-84
2023/08/28 14:07:41;;;;;;;5.65;2.50;;;;;;;;;;5039375;28;20481;-84
2023/08/28 14:10:09;;;;;;;3.35;2.10;;;;;;;;;;5038572;28;20092;-82
2023/08/28 14:12:34;;;;;;;5.53;2.08;;;;;;;;;;5040773;28;20017;-84
2023/08/28 14:15:00;;;;;;;3.28;2.13;;;;;;;;;;5056183;28;20015;-84
2023/08/28 14:17:26;;;;;;;9.77;1.90;;;;;;;;;;5037835;28;20040;-83
2023/08/28 14:19:54;;;;;;;4.35;2.00;;;;;;;;;;5038335;28;20091;-85
2023/08/28 14:22:19;;;;;;;4.90;2.08;;;;;;;;;;5055188;28;20080;-84
2023/08/28 14:24:45;;;;;;;4.45;1.77;;;;;;;;;;5036530;28;20029;-84
2023/08/28 14:27:13;;;;;;;3.75;1.67;;;;;;;;;;5042621;28;20119;-84
2023/08/28 14:29:38;;;;;;;2.78;1.50;;;;;;;;;;5045690;28;20384;-84
2023/08/28 14:32:03;;;;;;;2.45;1.85;;;;;;;;;;5038089;28;20025;-84
2023/08/28 14:34:29;;;;;;;3.08;1.75;;;;;;;;;;5038082;28;20021;-85
2023/08/28 14:36:55;;;;;;;4.00;1.85;;;;;;;;;;5039321;28;20021;-86
2023/08/28 14:39:20;;;;;;;3.95;1.75;;;;;;;;;;5040453;28;20028;-85
2023/08/28 14:42:05;;;;;;;3.50;1.60;;;;;;;;;;5038473;28;20028;-85
2023/08/28 14:44:30;;;;;;;2.42;1.20;;;;;;;;;;5042240;28;20459;-85
2023/08/28 14:46:55;;;;;;;2.22;1.05;;;;;;;;;;5046481;28;20032;-86
2023/08/28 14:49:21;;;;;;;3.75;1.45;;;;;;;;;;5043630;28;20048;-85
2023/08/28 14:51:47;;;;;;;2.65;1.45;;;;;;;;;;5050007;28;20021;-85
2023/08/28 14:54:12;;;;;;;2.42;1.20;;;;;;;;;;5038622;28;20047;-85
2023/08/28 14:56:38;;;;;;;3.65;1.63;;;;;;;;;;5040368;28;20029;-86